createdAt,value
2019-03-10T00:00:29.042Z,18.50
2019-03-10T00:02:57.330Z,14.78
2019-03-10T00:05:25.872Z,20.77
2019-03-10T00:07:54.261Z,15.63
2019-03-10T00:10:22.559Z,16.20
2019-03-10T00:12:51.213Z,16.82
2019-03-10T00:15:19.516Z,14.65
2019-03-10T00:17:47.827Z,15.80
2019-03-10T00:20:16.200Z,19.42
2019-03-10T00:22:44.517Z,23.05
2019-03-10T00:25:12.981Z,19.40
2019-03-10T00:27:41.300Z,16.52
2019-03-10T00:30:14.503Z,20.37
2019-03-10T00:32:43.182Z,19.00
2019-03-10T00:35:12.021Z,21.65
2019-03-10T00:37:40.636Z,17.40
2019-03-10T00:40:21.002Z,19.02
2019-03-10T00:42:55.461Z,17.85
2019-03-10T00:46:01.844Z,22.90
2019-03-10T00:48:55.981Z,16.70
2019-03-10T00:51:30.246Z,18.17
2019-03-10T00:53:58.873Z,16.35
2019-03-10T00:56:27.429Z,20.25
2019-03-10T00:58:55.756Z,19.27
2019-03-10T01:01:24.059Z,21.37
2019-03-10T01:03:52.362Z,19.40
2019-03-10T01:06:20.663Z,17.73
2019-03-10T01:08:48.966Z,22.35
2019-03-10T01:11:17.625Z,15.85
2019-03-10T01:13:45.983Z,18.57
2019-03-10T01:16:14.596Z,23.45
2019-03-10T01:18:42.968Z,21.90
2019-03-10T01:21:11.442Z,18.30
2019-03-10T01:23:40.001Z,23.12
2019-03-10T01:26:08.611Z,18.87
2019-03-10T01:28:36.901Z,21.60
2019-03-10T01:31:23.564Z,20.17
2019-03-10T01:33:58.042Z,23.05
2019-03-10T01:36:25.308Z,18.92
2019-03-10T01:38:53.608Z,27.07
2019-03-10T01:41:22.338Z,24.67
2019-03-10T01:43:51.038Z,20.37
2019-03-10T01:46:19.330Z,19.73
2019-03-10T01:48:47.642Z,19.92
2019-03-10T01:51:15.940Z,18.73
2019-03-10T01:53:44.273Z,20.17
2019-03-10T01:56:12.562Z,26.05
2019-03-10T01:58:40.866Z,20.77
2019-03-10T02:01:09.166Z,17.90
2019-03-10T02:03:37.486Z,27.13
2019-03-10T02:06:05.788Z,23.38
2019-03-10T02:08:34.093Z,18.75
2019-03-10T02:11:02.406Z,27.93
2019-03-10T02:13:30.799Z,24.90
2019-03-10T02:15:59.112Z,21.70
2019-03-10T02:18:27.412Z,26.20
2019-03-10T02:20:55.715Z,25.02
2019-03-10T02:23:24.011Z,26.87
2019-03-10T02:25:52.636Z,31.02
2019-03-10T02:28:20.937Z,28.00
2019-03-10T02:30:49.605Z,26.93
2019-03-10T02:33:18.107Z,26.35
2019-03-10T02:35:46.417Z,33.83
2019-03-10T02:38:14.944Z,28.52
2019-03-10T02:40:43.674Z,33.92
2019-03-10T02:43:11.981Z,32.27
2019-03-10T02:45:40.379Z,31.93
2019-03-10T02:48:08.695Z,23.50
2019-03-10T02:50:36.990Z,26.45
2019-03-10T02:53:05.303Z,35.73
2019-03-10T02:55:33.628Z,36.73
2019-03-10T02:58:02.298Z,32.67
2019-03-10T03:00:30.598Z,36.50
2019-03-10T03:02:58.909Z,30.68
2019-03-10T03:05:27.222Z,29.65
2019-03-10T03:07:55.525Z,38.05
2019-03-10T03:10:23.819Z,30.77
2019-03-10T03:12:52.118Z,26.52
2019-03-10T03:15:20.436Z,29.07
2019-03-10T03:17:48.721Z,29.55
2019-03-10T03:20:17.166Z,32.70
2019-03-10T03:22:45.450Z,29.98
2019-03-10T03:25:13.843Z,32.97
2019-03-10T03:27:42.409Z,34.60
2019-03-10T03:30:13.873Z,33.58
2019-03-10T03:32:42.179Z,34.33
2019-03-10T03:35:33.323Z,31.90
2019-03-10T03:38:01.626Z,40.47
2019-03-10T03:40:30.600Z,29.60
2019-03-10T03:42:59.276Z,35.43
2019-03-10T03:45:27.594Z,30.55
2019-03-10T03:47:56.175Z,25.92
2019-03-10T03:50:24.469Z,29.05
2019-03-10T03:52:53.138Z,28.70
2019-03-10T03:55:21.716Z,32.53
2019-03-10T03:57:50.030Z,34.63
2019-03-10T04:00:20.019Z,28.75
2019-03-10T04:02:48.337Z,29.45
2019-03-10T04:05:16.618Z,21.97
2019-03-10T04:07:44.920Z,31.45
2019-03-10T04:10:13.539Z,24.67
2019-03-10T04:12:41.843Z,24.65
2019-03-10T04:15:10.154Z,27.15
2019-03-10T04:17:38.866Z,22.85
2019-03-10T04:20:09.362Z,24.30
2019-03-10T04:22:37.692Z,22.90
2019-03-10T04:25:07.372Z,23.52
2019-03-10T04:27:35.976Z,24.52
2019-03-10T04:30:06.830Z,27.30
2019-03-10T04:32:35.131Z,27.70
2019-03-10T04:35:03.716Z,30.10
2019-03-10T04:37:32.015Z,22.95
2019-03-10T04:40:00.322Z,24.00
2019-03-10T04:42:28.616Z,27.05
2019-03-10T04:44:56.933Z,19.50
2019-03-10T04:47:25.220Z,24.25
2019-03-10T04:49:53.830Z,17.77
2019-03-10T04:52:22.120Z,24.67
2019-03-10T04:55:26.001Z,16.27
2019-03-10T04:57:55.941Z,27.22
2019-03-10T05:00:24.456Z,28.35
2019-03-10T05:02:52.747Z,26.13
2019-03-10T05:05:21.048Z,21.87
2019-03-10T05:07:49.646Z,30.43
2019-03-10T05:10:17.950Z,28.05
2019-03-10T05:12:46.254Z,24.40
2019-03-10T05:15:14.883Z,21.48
2019-03-10T05:17:43.207Z,25.80
2019-03-10T05:20:11.847Z,24.12
2019-03-10T05:22:40.160Z,25.77
2019-03-10T05:25:17.579Z,27.62
2019-03-10T05:27:45.876Z,20.52
2019-03-10T05:30:14.260Z,26.12
2019-03-10T05:32:42.572Z,26.52
2019-03-10T05:35:10.857Z,26.68
2019-03-10T05:37:39.194Z,27.07
2019-03-10T05:40:08.232Z,27.82
2019-03-10T05:42:36.593Z,27.00
2019-03-10T05:45:08.648Z,25.15
2019-03-10T05:47:36.944Z,26.90
2019-03-10T05:50:06.187Z,18.90
2019-03-10T05:52:34.520Z,23.30
2019-03-10T05:55:02.828Z,24.07
2019-03-10T05:57:31.120Z,26.55
2019-03-10T05:59:59.748Z,24.10
2019-03-10T06:02:28.024Z,23.83
2019-03-10T06:04:56.324Z,28.43
2019-03-10T06:07:24.663Z,27.25
2019-03-10T06:09:52.947Z,25.55
2019-03-10T06:12:21.239Z,21.80
2019-03-10T06:14:49.525Z,30.10
2019-03-10T06:17:17.862Z,46.95
2019-03-10T06:19:46.279Z,57.08
2019-03-10T06:22:14.574Z,21.97
2019-03-10T06:24:42.872Z,20.25
2019-03-10T06:27:11.175Z,24.65
2019-03-10T06:29:39.474Z,25.57
2019-03-10T06:32:07.786Z,26.05
2019-03-10T06:34:36.148Z,23.15
2019-03-10T06:37:04.468Z,25.05
2019-03-10T06:39:32.792Z,29.98
2019-03-10T06:42:01.093Z,16.43
2019-03-10T06:44:29.383Z,16.55
2019-03-10T06:46:57.664Z,24.77
2019-03-10T06:49:25.993Z,23.30
2019-03-10T06:51:54.286Z,15.58
2019-03-10T06:54:22.946Z,19.95
2019-03-10T06:56:51.253Z,17.17
2019-03-10T06:59:19.548Z,11.95
2019-03-10T07:01:47.899Z,14.35
2019-03-10T07:04:16.555Z,12.18
2019-03-10T07:06:44.857Z,12.85
2019-03-10T07:09:13.511Z,12.10
2019-03-10T07:11:42.088Z,16.07
2019-03-10T07:14:10.383Z,12.18
2019-03-10T07:16:38.711Z,11.43
2019-03-10T07:19:07.027Z,11.05
2019-03-10T07:21:35.339Z,9.47
2019-03-10T07:24:04.209Z,9.80
2019-03-10T07:26:32.532Z,8.65
2019-03-10T07:29:02.467Z,10.47
2019-03-10T07:31:32.420Z,9.75
2019-03-10T07:34:11.109Z,8.80
2019-03-10T07:36:41.340Z,10.35
2019-03-10T07:39:14.238Z,7.37
2019-03-10T07:42:00.489Z,7.47
2019-03-10T07:44:46.379Z,12.10
2019-03-10T07:47:31.324Z,7.87
2019-03-10T07:50:10.223Z,8.00
2019-03-10T07:52:56.450Z,8.05
2019-03-10T07:55:26.384Z,7.85
2019-03-10T07:58:05.654Z,7.30
2019-03-10T08:00:35.597Z,9.03
2019-03-10T08:03:11.789Z,9.60
2019-03-10T08:05:41.725Z,5.65
2019-03-10T08:08:17.703Z,7.92
2019-03-10T08:10:50.523Z,6.13
2019-03-10T08:13:26.213Z,7.87
2019-03-10T08:16:12.117Z,7.08
2019-03-10T08:18:44.872Z,6.83
2019-03-10T08:21:17.572Z,6.45
2019-03-10T08:23:50.195Z,5.92
2019-03-10T08:26:23.094Z,8.65
2019-03-10T08:28:56.291Z,5.95
2019-03-10T08:31:26.220Z,7.47
2019-03-10T08:33:56.134Z,8.80
2019-03-10T08:36:42.401Z,7.62
2019-03-10T08:39:18.266Z,6.65
2019-03-10T08:41:53.924Z,7.60
2019-03-10T08:44:42.183Z,4.50
2019-03-10T08:47:12.438Z,5.75
2019-03-10T08:49:45.688Z,9.33
2019-03-10T08:52:15.945Z,5.45
2019-03-10T08:54:54.883Z,7.73
2019-03-10T08:57:36.790Z,9.23
2019-03-10T09:00:12.871Z,5.47
2019-03-10T09:02:51.986Z,5.67
2019-03-10T09:05:36.926Z,4.80
2019-03-10T09:08:23.030Z,5.65
2019-03-10T09:10:56.218Z,7.20
2019-03-10T09:13:26.145Z,4.05
2019-03-10T09:15:56.078Z,4.28
2019-03-10T09:18:28.450Z,6.05
2019-03-10T09:21:04.698Z,8.00
2019-03-10T09:23:46.647Z,5.60
2019-03-10T09:26:25.364Z,4.47
2019-03-10T09:29:04.088Z,5.10
2019-03-10T09:31:34.023Z,4.25
2019-03-10T09:34:06.951Z,3.45
2019-03-10T09:36:46.293Z,3.50
2019-03-10T09:39:32.678Z,4.37
2019-03-10T09:42:12.308Z,3.17
2019-03-10T09:44:44.904Z,2.55
2019-03-10T09:47:20.944Z,5.62
2019-03-10T09:49:59.634Z,2.35
2019-03-10T09:52:29.883Z,5.28
2019-03-10T09:55:14.884Z,1.77
2019-03-10T09:57:44.843Z,2.87
2019-03-10T10:00:23.523Z,1.85
2019-03-10T10:02:53.466Z,4.08
2019-03-10T10:05:26.087Z,2.60
2019-03-10T10:07:56.029Z,3.55
2019-03-10T10:10:44.353Z,2.58
2019-03-10T10:13:30.559Z,2.20
2019-03-10T10:16:15.853Z,3.10
2019-03-10T10:18:45.803Z,3.00
2019-03-10T10:21:32.124Z,2.60
2019-03-10T10:24:02.065Z,4.03
2019-03-10T10:26:41.276Z,6.40
2019-03-10T10:29:27.681Z,3.40
2019-03-10T10:32:00.575Z,3.50
2019-03-10T10:34:32.931Z,5.55
2019-03-10T10:37:05.571Z,6.22
2019-03-10T10:39:35.526Z,4.83
2019-03-10T10:42:11.179Z,4.72
2019-03-10T10:44:56.215Z,5.58
2019-03-10T10:47:32.514Z,5.07
2019-03-10T10:50:20.713Z,4.65
2019-03-10T10:53:02.870Z,4.50
2019-03-10T10:55:41.902Z,4.78
2019-03-10T10:58:14.879Z,10.80
2019-03-10T11:00:56.668Z,4.45
2019-03-10T11:03:35.259Z,9.30
2019-03-10T11:06:11.299Z,10.23
2019-03-10T11:08:46.947Z,9.73
2019-03-10T11:11:33.185Z,10.43
2019-03-10T11:14:15.285Z,8.50
2019-03-10T11:16:45.544Z,10.20
2019-03-10T11:19:15.650Z,11.68
2019-03-10T11:21:48.490Z,10.15
2019-03-10T11:24:27.635Z,11.43
2019-03-10T11:26:57.571Z,9.60
2019-03-10T11:29:33.191Z,10.90
2019-03-10T11:32:09.118Z,8.53
2019-03-10T11:34:42.005Z,9.08
2019-03-10T11:37:20.737Z,11.73
2019-03-10T11:39:50.951Z,9.15
2019-03-10T11:42:39.221Z,11.18
2019-03-10T11:45:23.391Z,11.40
2019-03-10T11:48:05.210Z,11.65
2019-03-10T11:50:35.162Z,12.65
2019-03-10T11:53:19.201Z,8.83
2019-03-10T11:55:45.676Z,11.93
2019-03-10T11:58:18.480Z,10.97
2019-03-10T12:00:48.525Z,11.43
2019-03-10T12:03:18.507Z,14.05
2019-03-10T12:05:48.413Z,12.90
2019-03-10T12:08:21.263Z,17.33
2019-03-10T12:10:49.829Z,19.40
2019-03-10T12:13:18.121Z,14.00
2019-03-10T12:15:46.507Z,14.60
2019-03-10T12:18:14.828Z,9.75
2019-03-10T12:20:43.143Z,14.40
2019-03-10T12:23:11.436Z,15.63
2019-03-10T12:25:39.767Z,16.85
2019-03-10T12:28:08.140Z,13.32
2019-03-10T12:30:36.451Z,11.50
2019-03-10T12:33:05.073Z,17.20
2019-03-10T12:35:34.686Z,10.28
2019-03-10T12:38:03.470Z,14.13
2019-03-10T12:40:31.772Z,9.68
2019-03-10T12:43:00.076Z,11.38
2019-03-10T12:45:28.377Z,13.75
2019-03-10T12:47:56.687Z,11.05
2019-03-10T12:50:25.076Z,13.65
2019-03-10T12:52:53.392Z,13.18
2019-03-10T12:55:21.696Z,15.77
2019-03-10T12:57:50.298Z,16.40
2019-03-10T13:00:18.660Z,13.08
2019-03-10T13:02:47.355Z,14.43
2019-03-10T13:05:15.869Z,10.03
2019-03-10T13:07:44.169Z,13.32
2019-03-10T13:10:12.899Z,16.97
2019-03-10T13:12:41.303Z,16.70
2019-03-10T13:15:11.654Z,19.20
2019-03-10T13:17:39.941Z,17.17
2019-03-10T13:20:10.461Z,17.12
2019-03-10T13:22:38.819Z,23.65
2019-03-10T13:25:10.425Z,23.73
2019-03-10T13:27:38.803Z,17.02
2019-03-10T13:30:09.634Z,15.83
2019-03-10T13:32:37.976Z,13.13
2019-03-10T13:35:06.852Z,12.35
2019-03-10T13:37:35.176Z,15.40
2019-03-10T13:40:05.418Z,8.50
2019-03-10T13:42:33.741Z,7.37
2019-03-10T13:45:02.294Z,7.53
2019-03-10T13:47:30.595Z,10.05
2019-03-10T13:49:59.152Z,10.32
2019-03-10T13:52:27.457Z,13.43
2019-03-10T13:54:55.756Z,12.70
2019-03-10T13:57:24.058Z,11.60
2019-03-10T13:59:52.363Z,11.35
2019-03-10T14:02:20.646Z,8.88
2019-03-10T14:04:49.438Z,10.13
2019-03-10T14:07:18.080Z,11.00
2019-03-10T14:09:46.692Z,11.93
2019-03-10T14:12:15.200Z,8.45
2019-03-10T14:14:43.506Z,12.07
2019-03-10T14:17:12.094Z,16.40
2019-03-10T14:19:40.409Z,13.18
2019-03-10T14:22:08.698Z,7.00
2019-03-10T14:24:37.369Z,13.95
2019-03-10T14:27:05.741Z,16.90
2019-03-10T14:29:34.050Z,10.88
2019-03-10T14:32:02.338Z,10.25
2019-03-10T14:34:31.020Z,9.15
2019-03-10T14:36:59.301Z,9.83
2019-03-10T14:39:27.659Z,11.70
2019-03-10T14:41:55.959Z,11.70
2019-03-10T14:44:24.316Z,5.20
2019-03-10T14:46:52.634Z,11.08
2019-03-10T14:49:23.492Z,7.87
2019-03-10T14:51:51.185Z,16.90
2019-03-10T14:54:19.484Z,11.15
2019-03-10T14:56:47.788Z,15.40
2019-03-10T14:59:16.090Z,7.55
2019-03-10T15:01:44.395Z,9.45
2019-03-10T15:04:12.954Z,6.35
2019-03-10T15:06:41.558Z,6.15
2019-03-10T15:09:09.831Z,9.10
2019-03-10T15:11:38.138Z,6.28
2019-03-10T15:14:06.441Z,7.72
2019-03-10T15:16:35.056Z,9.53
2019-03-10T15:19:03.370Z,6.45
2019-03-10T15:21:31.931Z,5.72
2019-03-10T15:24:00.224Z,8.25
2019-03-10T15:26:28.611Z,11.10
2019-03-10T15:28:56.904Z,8.98
2019-03-10T15:31:29.779Z,8.73
2019-03-10T15:33:58.450Z,11.93
2019-03-10T15:36:26.760Z,9.13
2019-03-10T15:38:55.117Z,6.50
2019-03-10T15:41:23.458Z,4.08
2019-03-10T15:43:51.730Z,6.53
2019-03-10T15:46:20.123Z,7.22
2019-03-10T15:48:48.452Z,6.40
2019-03-10T15:51:16.767Z,4.83
2019-03-10T15:53:45.042Z,7.60
2019-03-10T15:56:13.377Z,8.18
2019-03-10T15:58:41.686Z,3.42
2019-03-10T16:01:10.059Z,5.00
2019-03-10T16:03:38.651Z,1.57
2019-03-10T16:06:07.138Z,3.20
2019-03-10T16:08:35.502Z,3.80
2019-03-10T16:11:04.062Z,5.53
2019-03-10T16:13:32.689Z,3.95
2019-03-10T16:16:01.294Z,3.15
2019-03-10T16:18:29.599Z,4.10
2019-03-10T16:20:57.944Z,4.20
2019-03-10T16:23:26.238Z,2.52
2019-03-10T16:25:54.527Z,2.20
2019-03-10T16:28:22.863Z,3.80
2019-03-10T16:30:51.390Z,1.90
2019-03-10T16:33:19.722Z,1.30
2019-03-10T16:35:48.314Z,1.52
2019-03-10T16:38:16.631Z,1.90
2019-03-10T16:40:44.938Z,2.40
2019-03-10T16:43:13.237Z,1.80
2019-03-10T16:45:41.827Z,2.00
2019-03-10T16:48:10.132Z,1.10
2019-03-10T16:50:38.426Z,1.42
2019-03-10T16:53:06.707Z,1.40
2019-03-10T16:55:34.999Z,1.90
2019-03-10T16:58:03.284Z,1.67
2019-03-10T17:00:31.857Z,1.80
2019-03-10T17:03:00.497Z,2.42
2019-03-10T17:05:29.045Z,1.90
2019-03-10T17:07:57.356Z,2.70
2019-03-10T17:10:26.850Z,4.70
2019-03-10T17:12:55.203Z,2.42
2019-03-10T17:15:24.362Z,3.67
2019-03-10T17:17:52.808Z,2.30
2019-03-10T17:20:21.294Z,2.25
2019-03-10T17:22:49.603Z,2.30
2019-03-10T17:25:18.232Z,3.00
2019-03-10T17:27:46.570Z,3.08
2019-03-10T17:30:17.113Z,3.73
2019-03-10T17:32:45.637Z,6.72
2019-03-10T17:35:14.473Z,6.15
2019-03-10T17:37:43.087Z,7.97
2019-03-10T17:40:16.517Z,3.00
2019-03-10T17:42:44.832Z,3.58
2019-03-10T17:45:17.958Z,3.00
2019-03-10T17:47:46.318Z,3.55
2019-03-10T17:50:16.942Z,2.92
2019-03-10T17:52:45.465Z,2.10
2019-03-10T17:55:19.977Z,1.70
2019-03-10T17:57:48.273Z,1.50
2019-03-10T18:00:28.683Z,3.17
2019-03-10T18:02:57.013Z,2.20
2019-03-10T18:05:25.391Z,5.15
2019-03-10T18:07:53.680Z,5.03
2019-03-10T18:10:22.062Z,5.13
2019-03-10T18:12:50.372Z,4.65
2019-03-10T18:15:19.486Z,5.03
2019-03-10T18:17:47.950Z,5.70
2019-03-10T18:20:21.790Z,5.58
2019-03-10T18:22:50.110Z,6.60
2019-03-10T18:25:18.648Z,7.12
2019-03-10T18:27:47.043Z,6.33
2019-03-10T18:30:17.965Z,6.33
2019-03-10T18:32:46.510Z,5.15
2019-03-10T18:35:15.154Z,6.30
2019-03-10T18:37:43.698Z,8.50
2019-03-10T18:40:21.114Z,5.83
2019-03-10T18:42:49.527Z,7.12
2019-03-10T18:45:18.745Z,8.43
2019-03-10T18:47:47.372Z,10.20
2019-03-10T18:50:21.639Z,9.98
2019-03-10T18:52:50.065Z,8.03
2019-03-10T18:55:18.983Z,5.37
2019-03-10T18:57:47.496Z,5.62
2019-03-10T19:00:29.514Z,5.97
2019-03-10T19:03:36.010Z,6.27
2019-03-10T19:06:04.706Z,10.70
2019-03-10T19:08:33.392Z,6.35
2019-03-10T19:11:02.135Z,7.40
2019-03-10T19:13:30.513Z,5.40
2019-03-10T19:15:58.854Z,3.50
2019-03-10T19:18:27.140Z,4.33
2019-03-10T19:20:55.463Z,3.20
2019-03-10T19:23:23.764Z,5.28
2019-03-10T19:25:52.075Z,4.55
2019-03-10T19:28:20.354Z,3.80
2019-03-10T19:30:48.670Z,3.87
2019-03-10T19:33:17.270Z,6.50
2019-03-10T19:35:45.590Z,5.80
2019-03-10T19:38:13.991Z,7.40
2019-03-10T19:40:42.393Z,4.25
2019-03-10T19:43:10.770Z,3.50
2019-03-10T19:45:39.535Z,4.10
2019-03-10T19:48:08.250Z,4.60
2019-03-10T19:50:36.650Z,5.80
2019-03-10T19:53:05.392Z,6.90
2019-03-10T19:55:33.740Z,5.03
2019-03-10T19:58:02.478Z,6.17
2019-03-10T20:00:30.893Z,5.20
2019-03-10T20:02:59.280Z,5.00
2019-03-10T20:05:27.689Z,4.15
2019-03-10T20:07:56.129Z,4.00
2019-03-10T20:10:24.599Z,3.77
2019-03-10T20:12:52.997Z,3.37
2019-03-10T20:15:23.449Z,7.97
2019-03-10T20:17:51.815Z,5.72
2019-03-10T20:20:31.327Z,6.95
2019-03-10T20:23:01.170Z,11.30
2019-03-10T20:25:29.700Z,11.43
2019-03-10T20:27:57.980Z,8.40
2019-03-10T20:30:27.335Z,4.87
2019-03-10T20:32:55.740Z,5.17
2019-03-10T20:35:24.091Z,3.57
2019-03-10T20:37:52.736Z,2.80
2019-03-10T20:40:22.840Z,8.40
2019-03-10T20:42:51.135Z,3.80
2019-03-10T20:45:19.794Z,3.40
2019-03-10T20:47:48.267Z,5.28
2019-03-10T20:50:17.868Z,3.90
2019-03-10T20:52:46.140Z,4.78
2019-03-10T20:55:15.363Z,4.42
2019-03-10T20:57:44.181Z,4.35
2019-03-10T21:00:18.695Z,5.10
2019-03-10T21:02:47.096Z,4.42
2019-03-10T21:05:15.458Z,5.40
2019-03-10T21:07:44.132Z,5.90
2019-03-10T21:10:15.506Z,5.90
2019-03-10T21:12:47.107Z,4.83
2019-03-10T21:15:20.129Z,6.90
2019-03-10T21:17:48.536Z,6.33
2019-03-10T21:20:18.057Z,5.67
2019-03-10T21:22:46.357Z,6.87
2019-03-10T21:25:28.327Z,8.30
2019-03-10T21:27:56.579Z,5.62
2019-03-10T21:30:26.703Z,8.60
2019-03-10T21:32:55.273Z,7.58
2019-03-10T21:35:23.563Z,9.18
2019-03-10T21:37:52.134Z,5.73
2019-03-10T21:40:23.363Z,6.05
2019-03-10T21:43:10.563Z,5.67
2019-03-10T21:45:38.855Z,7.47
2019-03-10T21:48:07.169Z,6.55
2019-03-10T21:50:35.465Z,6.35
2019-03-10T21:53:03.768Z,6.92
2019-03-10T21:55:32.050Z,4.62
2019-03-10T21:58:00.369Z,5.67
2019-03-10T22:00:28.768Z,3.62
2019-03-10T22:02:57.077Z,5.25
2019-03-10T22:05:25.381Z,3.58
2019-03-10T22:07:53.948Z,5.47
2019-03-10T22:10:27.455Z,6.10
2019-03-10T22:12:52.650Z,5.93
2019-03-10T22:15:21.431Z,6.45
2019-03-10T22:17:50.374Z,6.22
2019-03-10T22:20:22.077Z,9.37
2019-03-10T22:22:50.421Z,8.10
2019-03-10T22:25:18.753Z,8.13
2019-03-10T22:27:59.229Z,7.37
2019-03-10T22:30:28.992Z,8.78
2019-03-10T22:32:57.447Z,8.28
2019-03-10T22:35:25.801Z,8.43
2019-03-10T22:37:54.114Z,9.78
2019-03-10T22:40:22.493Z,7.28
2019-03-10T22:42:51.995Z,12.20
2019-03-10T22:45:21.335Z,11.60
2019-03-10T22:51:02.606Z,6.65
2019-03-10T22:53:31.112Z,9.85
2019-03-10T22:55:59.421Z,11.08
2019-03-10T22:58:27.696Z,9.18
2019-03-10T23:00:56.956Z,10.25
2019-03-10T23:03:25.252Z,10.35
2019-03-10T23:05:53.740Z,7.23
2019-03-10T23:08:33.040Z,7.50
2019-03-10T23:11:02.096Z,10.75
2019-03-10T23:13:33.032Z,11.03
2019-03-10T23:16:01.787Z,9.25
2019-03-10T23:18:30.100Z,10.88
2019-03-10T23:20:58.396Z,11.08
2019-03-10T23:23:26.724Z,12.30
2019-03-10T23:25:55.005Z,9.23
2019-03-10T23:28:25.991Z,12.30
2019-03-10T23:30:54.631Z,10.38
2019-03-10T23:33:23.199Z,8.73
2019-03-10T23:35:51.507Z,9.97
2019-03-10T23:38:19.894Z,9.98
2019-03-10T23:40:48.201Z,10.55
2019-03-10T23:43:16.533Z,9.93
2019-03-10T23:45:44.898Z,13.63
2019-03-10T23:48:13.486Z,8.78
2019-03-10T23:50:42.152Z,19.05
2019-03-10T23:53:10.436Z,10.65
2019-03-10T23:55:38.782Z,8.28
2019-03-10T23:58:07.064Z,7.03
